sensor_id;sensor_type;location;lat;lon;timestamp;pressure;altitude;pressure_sealevel;temperature;humidity
60820;BME280;46641;48.904;9.126;2023-12-28T00:03:11;98636.47;;;12.04;64.93
60820;BME280;46641;48.904;9.126;2023-12-28T00:08:01;98636.63;;;12.03;64.95
60820;BME280;46641;48.904;9.126;2023-12-28T00:12:52;98627.91;;;12.02;65.42
60820;BME280;46641;48.904;9.126;2023-12-28T00:17:42;98639.25;;;12.03;64.84
60820;BME280;46641;48.904;9.126;2023-12-28T00:22:32;98652.50;;;12.01;65.16
60820;BME280;46641;48.904;9.126;2023-12-28T00:27:23;98650.88;;;12.00;65.26
60820;BME280;46641;48.904;9.126;2023-12-28T00:32:13;98649.22;;;11.99;65.34
60820;BME280;46641;48.904;9.126;2023-12-28T00:37:03;98652.81;;;11.98;65.28
60820;BME280;46641;48.904;9.126;2023-12-28T00:41:53;98660.03;;;11.96;65.41
60820;BME280;46641;48.904;9.126;2023-12-28T00:46:44;98651.16;;;11.97;65.58
60820;BME280;46641;48.904;9.126;2023-12-28T00:51:34;98626.75;;;11.97;65.45
60820;BME280;46641;48.904;9.126;2023-12-28T00:56:24;98629.50;;;11.95;65.54
60820;BME280;46641;48.904;9.126;2023-12-28T01:01:15;98645.91;;;11.97;65.58
60820;BME280;46641;48.904;9.126;2023-12-28T01:06:05;98645.09;;;11.97;65.67
60820;BME280;46641;48.904;9.126;2023-12-28T01:10:56;98656.41;;;11.97;65.41
60820;BME280;46641;48.904;9.126;2023-12-28T01:15:47;98652.00;;;11.98;65.44
60820;BME280;46641;48.904;9.126;2023-12-28T01:20:37;98655.59;;;11.97;65.63
60820;BME280;46641;48.904;9.126;2023-12-28T01:25:27;98656.41;;;11.97;65.60
60820;BME280;46641;48.904;9.126;2023-12-28T01:30:18;98663.28;;;11.98;65.41
60820;BME280;46641;48.904;9.126;2023-12-28T01:35:08;98680.72;;;11.99;65.54
60820;BME280;46641;48.904;9.126;2023-12-28T01:39:59;98674.59;;;11.99;65.60
60820;BME280;46641;48.904;9.126;2023-12-28T01:44:50;98686.91;;;11.98;65.47
60820;BME280;46641;48.904;9.126;2023-12-28T01:49:40;98684.97;;;12.00;65.55
60820;BME280;46641;48.904;9.126;2023-12-28T01:54:31;98687.59;;;12.00;65.50
60820;BME280;46641;48.904;9.126;2023-12-28T01:59:21;98700.69;;;12.00;65.73
60820;BME280;46641;48.904;9.126;2023-12-28T02:04:12;98705.94;;;12.00;65.78
60820;BME280;46641;48.904;9.126;2023-12-28T02:09:02;98711.84;;;12.02;65.66
60820;BME280;46641;48.904;9.126;2023-12-28T02:13:53;98704.97;;;12.01;65.76
60820;BME280;46641;48.904;9.126;2023-12-28T02:18:49;98707.59;;;12.01;65.56
60820;BME280;46641;48.904;9.126;2023-12-28T02:23:39;98710.22;;;12.01;65.65
60820;BME280;46641;48.904;9.126;2023-12-28T02:28:35;98713.66;;;12.02;65.87
60820;BME280;46641;48.904;9.126;2023-12-28T02:33:32;98713.53;;;12.03;65.72
60820;BME280;46641;48.904;9.126;2023-12-28T02:38:25;98704.97;;;12.01;65.78
60820;BME280;46641;48.904;9.126;2023-12-28T02:43:17;98698.09;;;12.00;65.73
60820;BME280;46641;48.904;9.126;2023-12-28T02:48:08;98695.28;;;12.02;65.65
60820;BME280;46641;48.904;9.126;2023-12-28T02:52:59;98700.53;;;12.02;65.70
60820;BME280;46641;48.904;9.126;2023-12-28T02:57:50;98694.16;;;12.04;65.69
60820;BME280;46641;48.904;9.126;2023-12-28T03:02:41;98706.59;;;12.02;65.67
60820;BME280;46641;48.904;9.126;2023-12-28T03:07:32;98698.59;;;12.04;65.79
60820;BME280;46641;48.904;9.126;2023-12-28T03:12:22;98702.84;;;12.05;65.63
60820;BME280;46641;48.904;9.126;2023-12-28T03:17:13;98706.31;;;12.05;65.73
60820;BME280;46641;48.904;9.126;2023-12-28T03:22:03;98695.81;;;12.05;65.88
60820;BME280;46641;48.904;9.126;2023-12-28T03:26:54;98693.88;;;12.07;65.61
60820;BME280;46641;48.904;9.126;2023-12-28T03:31:44;98682.56;;;12.07;65.60
60820;BME280;46641;48.904;9.126;2023-12-28T03:36:34;98691.25;;;12.07;65.77
60820;BME280;46641;48.904;9.126;2023-12-28T03:41:24;98692.06;;;12.08;65.81
60820;BME280;46641;48.904;9.126;2023-12-28T03:46:15;98695.50;;;12.08;65.59
60820;BME280;46641;48.904;9.126;2023-12-28T03:51:05;98703.25;;;12.10;65.46
60820;BME280;46641;48.904;9.126;2023-12-28T03:55:56;98691.94;;;12.09;65.45
60820;BME280;46641;48.904;9.126;2023-12-28T04:00:46;98676.19;;;12.09;65.77
60820;BME280;46641;48.904;9.126;2023-12-28T04:05:36;98676.19;;;12.09;65.68
60820;BME280;46641;48.904;9.126;2023-12-28T04:10:32;98684.72;;;12.11;65.29
60820;BME280;46641;48.904;9.126;2023-12-28T04:15:26;98687.34;;;12.11;65.85
60820;BME280;46641;48.904;9.126;2023-12-28T04:20:16;98677.81;;;12.10;65.62
60820;BME280;46641;48.904;9.126;2023-12-28T04:25:06;98682.09;;;12.11;65.98
60820;BME280;46641;48.904;9.126;2023-12-28T04:29:57;98676.03;;;12.11;65.93
60820;BME280;46641;48.904;9.126;2023-12-28T04:34:47;98670.63;;;12.12;65.58
60820;BME280;46641;48.904;9.126;2023-12-28T04:39:37;98672.28;;;12.13;65.62
60820;BME280;46641;48.904;9.126;2023-12-28T04:44:28;98666.72;;;12.16;65.82
60820;BME280;46641;48.904;9.126;2023-12-28T04:49:18;98659.50;;;12.19;65.72
60820;BME280;46641;48.904;9.126;2023-12-28T04:54:08;98657.56;;;12.21;65.83
60820;BME280;46641;48.904;9.126;2023-12-28T04:58:58;98665.28;;;12.22;65.98
60820;BME280;46641;48.904;9.126;2023-12-28T05:03:49;98664.44;;;12.22;65.69
60820;BME280;46641;48.904;9.126;2023-12-28T05:08:39;98668.72;;;12.23;65.94
60820;BME280;46641;48.904;9.126;2023-12-28T05:13:29;98675.63;;;12.24;66.05
60820;BME280;46641;48.904;9.126;2023-12-28T05:18:20;98673.81;;;12.24;65.75
60820;BME280;46641;48.904;9.126;2023-12-28T05:23:10;98682.38;;;12.26;65.96
60820;BME280;46641;48.904;9.126;2023-12-28T05:28:00;98688.25;;;12.28;65.77
60820;BME280;46641;48.904;9.126;2023-12-28T05:32:51;98712.72;;;12.29;65.45
60820;BME280;46641;48.904;9.126;2023-12-28T05:37:41;98731.09;;;12.29;65.16
60820;BME280;46641;48.904;9.126;2023-12-28T05:42:31;98725.00;;;12.28;65.38
60820;BME280;46641;48.904;9.126;2023-12-28T05:47:21;98746.00;;;12.28;65.00
60820;BME280;46641;48.904;9.126;2023-12-28T05:52:12;98743.25;;;12.30;64.70
60820;BME280;46641;48.904;9.126;2023-12-28T05:57:05;98735.38;;;12.30;64.75
60820;BME280;46641;48.904;9.126;2023-12-28T06:01:55;98737.81;;;12.31;64.65
60820;BME280;46641;48.904;9.126;2023-12-28T06:06:47;98752.75;;;12.31;64.97
60820;BME280;46641;48.904;9.126;2023-12-28T06:11:37;98759.66;;;12.32;64.95
60820;BME280;46641;48.904;9.126;2023-12-28T06:16:27;98765.75;;;12.32;65.14
60820;BME280;46641;48.904;9.126;2023-12-28T06:21:21;98775.13;;;12.35;65.01
60820;BME280;46641;48.904;9.126;2023-12-28T06:26:11;98754.13;;;12.35;65.06
60820;BME280;46641;48.904;9.126;2023-12-28T06:31:01;98748.53;;;12.38;65.07
60820;BME280;46641;48.904;9.126;2023-12-28T06:35:53;98756.28;;;12.39;64.68
60820;BME280;46641;48.904;9.126;2023-12-28T06:40:43;98763.03;;;12.42;64.91
60820;BME280;46641;48.904;9.126;2023-12-28T06:45:34;98772.53;;;12.43;64.59
60820;BME280;46641;48.904;9.126;2023-12-28T06:50:24;98777.47;;;12.46;64.74
60820;BME280;46641;48.904;9.126;2023-12-28T06:55:14;98789.63;;;12.47;64.72
60820;BME280;46641;48.904;9.126;2023-12-28T07:00:05;98793.44;;;12.53;64.62
60820;BME280;46641;48.904;9.126;2023-12-28T07:04:55;98798.69;;;12.53;64.42
60820;BME280;46641;48.904;9.126;2023-12-28T07:09:45;98805.59;;;12.54;64.63
60820;BME280;46641;48.904;9.126;2023-12-28T07:14:36;98812.19;;;12.58;64.64
60820;BME280;46641;48.904;9.126;2023-12-28T07:19:26;98815.66;;;12.58;63.88
60820;BME280;46641;48.904;9.126;2023-12-28T07:24:16;98808.44;;;12.60;63.64
60820;BME280;46641;48.904;9.126;2023-12-28T07:29:07;98817.44;;;12.58;64.15
60820;BME280;46641;48.904;9.126;2023-12-28T07:33:57;98817.28;;;12.59;64.52
60820;BME280;46641;48.904;9.126;2023-12-28T07:38:47;98823.53;;;12.58;64.51
60820;BME280;46641;48.904;9.126;2023-12-28T07:43:38;98831.75;;;12.63;64.36
60820;BME280;46641;48.904;9.126;2023-12-28T07:48:30;98821.94;;;12.66;64.98
60820;BME280;46641;48.904;9.126;2023-12-28T07:53:20;98837.09;;;12.72;64.57
60820;BME280;46641;48.904;9.126;2023-12-28T07:58:10;98833.03;;;12.77;64.92
60820;BME280;46641;48.904;9.126;2023-12-28T08:03:01;98831.88;;;12.80;64.49
60820;BME280;46641;48.904;9.126;2023-12-28T08:07:51;98837.50;;;12.85;64.40
60820;BME280;46641;48.904;9.126;2023-12-28T08:12:41;98841.16;;;12.92;64.31
60820;BME280;46641;48.904;9.126;2023-12-28T08:17:33;98843.47;;;12.95;64.17
60820;BME280;46641;48.904;9.126;2023-12-28T08:22:23;98833.78;;;12.96;64.34
60820;BME280;46641;48.904;9.126;2023-12-28T08:27:13;98832.34;;;13.01;64.24
60820;BME280;46641;48.904;9.126;2023-12-28T08:32:04;98831.38;;;13.02;64.64
60820;BME280;46641;48.904;9.126;2023-12-28T08:36:54;98832.19;;;13.03;64.06
60820;BME280;46641;48.904;9.126;2023-12-28T08:41:44;98836.63;;;13.02;64.14
60820;BME280;46641;48.904;9.126;2023-12-28T08:46:34;98846.31;;;13.02;64.26
60820;BME280;46641;48.904;9.126;2023-12-28T08:51:25;98849.63;;;13.04;64.21
60820;BME280;46641;48.904;9.126;2023-12-28T08:56:22;98853.75;;;13.06;63.96
60820;BME280;46641;48.904;9.126;2023-12-28T09:01:19;98848.16;;;13.09;63.90
60820;BME280;46641;48.904;9.126;2023-12-28T09:06:11;98851.78;;;13.08;64.39
60820;BME280;46641;48.904;9.126;2023-12-28T09:11:01;98834.06;;;13.10;64.27
60820;BME280;46641;48.904;9.126;2023-12-28T09:15:52;98826.00;;;13.12;64.36
60820;BME280;46641;48.904;9.126;2023-12-28T09:20:42;98832.75;;;13.15;64.49
60820;BME280;46641;48.904;9.126;2023-12-28T09:25:33;98837.03;;;13.16;64.52
60820;BME280;46641;48.904;9.126;2023-12-28T09:30:23;98843.13;;;13.16;64.36
60820;BME280;46641;48.904;9.126;2023-12-28T09:35:13;98841.31;;;13.17;64.40
60820;BME280;46641;48.904;9.126;2023-12-28T09:40:04;98860.22;;;13.20;64.34
60820;BME280;46641;48.904;9.126;2023-12-28T09:44:55;98875.69;;;13.23;64.31
60820;BME280;46641;48.904;9.126;2023-12-28T09:49:47;98880.13;;;13.23;64.26
60820;BME280;46641;48.904;9.126;2023-12-28T09:54:37;98883.44;;;13.25;64.25
60820;BME280;46641;48.904;9.126;2023-12-28T09:59:28;98885.75;;;13.28;64.21
60820;BME280;46641;48.904;9.126;2023-12-28T10:04:19;98888.56;;;13.26;64.44
60820;BME280;46641;48.904;9.126;2023-12-28T10:09:10;98885.63;;;13.29;64.53
60820;BME280;46641;48.904;9.126;2023-12-28T10:14:00;98881.81;;;13.32;64.42
60820;BME280;46641;48.904;9.126;2023-12-28T10:18:52;98880.88;;;13.33;64.41
60820;BME280;46641;48.904;9.126;2023-12-28T10:23:42;98885.97;;;13.35;64.30
60820;BME280;46641;48.904;9.126;2023-12-28T10:28:34;98877.25;;;13.34;64.30
60820;BME280;46641;48.904;9.126;2023-12-28T10:33:25;98863.94;;;13.36;64.44
60820;BME280;46641;48.904;9.126;2023-12-28T10:38:16;98859.53;;;13.36;64.43
60820;BME280;46641;48.904;9.126;2023-12-28T10:43:07;98854.91;;;13.38;64.45
60820;BME280;46641;48.904;9.126;2023-12-28T10:48:05;98864.97;;;13.43;64.22
60820;BME280;46641;48.904;9.126;2023-12-28T10:53:07;98853.66;;;13.42;64.29
60820;BME280;46641;48.904;9.126;2023-12-28T10:58:14;98853.31;;;13.45;63.99
60820;BME280;46641;48.904;9.126;2023-12-28T11:03:09;98853.84;;;13.49;64.24
60820;BME280;46641;48.904;9.126;2023-12-28T11:08:02;98839.69;;;13.50;64.56
60820;BME280;46641;48.904;9.126;2023-12-28T11:12:53;98832.63;;;13.50;64.41
60820;BME280;46641;48.904;9.126;2023-12-28T11:17:44;98840.88;;;13.55;64.72
60820;BME280;46641;48.904;9.126;2023-12-28T11:22:34;98830.69;;;13.61;64.30
60820;BME280;46641;48.904;9.126;2023-12-28T11:27:33;98829.38;;;13.65;63.86
60820;BME280;46641;48.904;9.126;2023-12-28T11:32:24;98816.22;;;13.65;64.30
60820;BME280;46641;48.904;9.126;2023-12-28T11:37:16;98813.16;;;13.69;64.24
60820;BME280;46641;48.904;9.126;2023-12-28T11:42:09;98817.41;;;13.70;64.37
60820;BME280;46641;48.904;9.126;2023-12-28T11:47:10;98807.72;;;13.71;64.12
60820;BME280;46641;48.904;9.126;2023-12-28T11:52:01;98798.00;;;13.71;64.21
60820;BME280;46641;48.904;9.126;2023-12-28T11:56:51;98796.22;;;13.72;64.26
60820;BME280;46641;48.904;9.126;2023-12-28T12:01:42;98800.50;;;13.73;64.21
60820;BME280;46641;48.904;9.126;2023-12-28T12:06:33;98795.91;;;13.75;64.25
60820;BME280;46641;48.904;9.126;2023-12-28T12:11:23;98787.69;;;13.78;64.27
60820;BME280;46641;48.904;9.126;2023-12-28T12:16:14;98795.09;;;13.83;64.32
60820;BME280;46641;48.904;9.126;2023-12-28T12:21:04;98803.47;;;13.86;64.07
60820;BME280;46641;48.904;9.126;2023-12-28T12:25:56;98784.56;;;13.91;64.00
60820;BME280;46641;48.904;9.126;2023-12-28T12:30:52;98791.19;;;13.95;63.92
60820;BME280;46641;48.904;9.126;2023-12-28T12:35:43;98773.56;;;13.95;63.93
60820;BME280;46641;48.904;9.126;2023-12-28T12:40:34;98782.97;;;13.98;64.34
60820;BME280;46641;48.904;9.126;2023-12-28T12:45:24;98759.09;;;13.99;64.07
60820;BME280;46641;48.904;9.126;2023-12-28T12:50:15;98771.63;;;13.97;64.11
60820;BME280;46641;48.904;9.126;2023-12-28T12:55:06;98768.63;;;14.00;64.43
60820;BME280;46641;48.904;9.126;2023-12-28T13:00:00;98764.03;;;14.02;64.48
60820;BME280;46641;48.904;9.126;2023-12-28T13:04:52;98762.22;;;14.03;64.23
60820;BME280;46641;48.904;9.126;2023-12-28T13:09:43;98757.63;;;14.05;64.27
60820;BME280;46641;48.904;9.126;2023-12-28T13:14:33;98768.81;;;14.07;64.15
60820;BME280;46641;48.904;9.126;2023-12-28T13:19:24;98769.31;;;14.11;64.19
60820;BME280;46641;48.904;9.126;2023-12-28T13:24:14;98764.88;;;14.11;64.25
60820;BME280;46641;48.904;9.126;2023-12-28T13:29:05;98776.94;;;13.21;67.25
60820;BME280;46641;48.904;9.126;2023-12-28T13:33:55;98774.84;;;13.75;65.43
60820;BME280;46641;48.904;9.126;2023-12-28T13:38:45;98780.00;;;14.01;64.70
60820;BME280;46641;48.904;9.126;2023-12-28T13:43:35;98784.13;;;14.12;64.32
60820;BME280;46641;48.904;9.126;2023-12-28T13:48:26;98780.00;;;14.17;64.21
60820;BME280;46641;48.904;9.126;2023-12-28T13:53:16;98772.75;;;14.19;63.96
60820;BME280;46641;48.904;9.126;2023-12-28T13:58:06;98767.34;;;14.21;64.04
60820;BME280;46641;48.904;9.126;2023-12-28T14:02:57;98768.16;;;14.21;64.12
60820;BME280;46641;48.904;9.126;2023-12-28T14:07:49;98757.63;;;14.21;64.11
60820;BME280;46641;48.904;9.126;2023-12-28T14:12:39;98765.22;;;14.24;64.35
60820;BME280;46641;48.904;9.126;2023-12-28T14:17:29;98767.66;;;14.26;64.15
60820;BME280;46641;48.904;9.126;2023-12-28T14:22:20;98772.94;;;14.26;64.09
60820;BME280;46641;48.904;9.126;2023-12-28T14:27:11;98768.47;;;14.26;64.02
60820;BME280;46641;48.904;9.126;2023-12-28T14:32:02;98760.44;;;14.28;64.09
60820;BME280;46641;48.904;9.126;2023-12-28T14:36:53;98770.97;;;14.28;64.15
60820;BME280;46641;48.904;9.126;2023-12-28T14:41:43;98759.28;;;14.31;64.09
60820;BME280;46641;48.904;9.126;2023-12-28T14:46:34;98753.19;;;14.30;64.10
60820;BME280;46641;48.904;9.126;2023-12-28T14:51:25;98740.69;;;14.32;64.11
60820;BME280;46641;48.904;9.126;2023-12-28T14:56:15;98735.41;;;14.32;63.77
60820;BME280;46641;48.904;9.126;2023-12-28T15:01:05;98733.44;;;14.34;64.14
60820;BME280;46641;48.904;9.126;2023-12-28T15:05:56;98726.19;;;14.36;64.09
60820;BME280;46641;48.904;9.126;2023-12-28T15:10:46;98723.56;;;14.28;64.27
60820;BME280;46641;48.904;9.126;2023-12-28T15:15:37;98728.84;;;14.28;63.97
60820;BME280;46641;48.904;9.126;2023-12-28T15:20:28;98733.59;;;14.33;63.94
60820;BME280;46641;48.904;9.126;2023-12-28T15:25:18;98740.34;;;14.35;64.00
60820;BME280;46641;48.904;9.126;2023-12-28T15:30:10;98730.81;;;14.34;63.99
60820;BME280;46641;48.904;9.126;2023-12-28T15:35:00;98733.13;;;14.37;63.76
60820;BME280;46641;48.904;9.126;2023-12-28T15:39:52;98738.38;;;14.37;63.89
60820;BME280;46641;48.904;9.126;2023-12-28T15:44:42;98722.59;;;14.37;63.86
60820;BME280;46641;48.904;9.126;2023-12-28T15:49:33;98727.03;;;14.37;63.94
60820;BME280;46641;48.904;9.126;2023-12-28T15:54:23;98722.91;;;14.34;64.23
60820;BME280;46641;48.904;9.126;2023-12-28T15:59:13;98711.06;;;14.30;64.09
60820;BME280;46641;48.904;9.126;2023-12-28T16:04:04;98718.31;;;14.28;64.28
60820;BME280;46641;48.904;9.126;2023-12-28T16:08:54;98703.00;;;14.32;64.27
60820;BME280;46641;48.904;9.126;2023-12-28T16:13:44;98708.13;;;14.33;64.13
60820;BME280;46641;48.904;9.126;2023-12-28T16:18:35;98717.66;;;14.34;64.22
60820;BME280;46641;48.904;9.126;2023-12-28T16:23:26;98718.66;;;14.33;64.05
60820;BME280;46641;48.904;9.126;2023-12-28T16:28:16;98715.16;;;14.33;63.98
60820;BME280;46641;48.904;9.126;2023-12-28T16:33:06;98716.16;;;14.32;64.24
60820;BME280;46641;48.904;9.126;2023-12-28T16:37:56;98710.41;;;14.28;64.27
60820;BME280;46641;48.904;9.126;2023-12-28T16:42:47;98728.16;;;14.26;64.38
60820;BME280;46641;48.904;9.126;2023-12-28T16:47:40;98719.16;;;14.20;64.48
60820;BME280;46641;48.904;9.126;2023-12-28T16:52:31;98714.69;;;14.21;64.56
60820;BME280;46641;48.904;9.126;2023-12-28T16:57:21;98706.94;;;14.19;64.61
60820;BME280;46641;48.904;9.126;2023-12-28T17:02:11;98709.75;;;13.93;63.11
60820;BME280;46641;48.904;9.126;2023-12-28T17:07:02;98714.69;;;13.96;63.51
60820;BME280;46641;48.904;9.126;2023-12-28T17:12:22;98705.97;;;13.96;63.67
60820;BME280;46641;48.904;9.126;2023-12-28T17:17:10;98708.28;;;13.99;63.73
60820;BME280;46641;48.904;9.126;2023-12-28T17:22:03;98696.63;;;14.01;63.77
60820;BME280;46641;48.904;9.126;2023-12-28T17:26:57;98692.84;;;14.04;63.78
60820;BME280;46641;48.904;9.126;2023-12-28T17:31:50;98683.94;;;14.05;64.03
60820;BME280;46641;48.904;9.126;2023-12-28T17:36:41;98697.09;;;14.05;64.04
60820;BME280;46641;48.904;9.126;2023-12-28T17:41:33;98705.16;;;14.03;64.19
60820;BME280;46641;48.904;9.126;2023-12-28T17:51:28;98721.78;;;14.04;64.36
60820;BME280;46641;48.904;9.126;2023-12-28T17:56:19;98713.56;;;14.07;64.02
60820;BME280;46641;48.904;9.126;2023-12-28T18:01:09;98711.06;;;14.06;64.04
60820;BME280;46641;48.904;9.126;2023-12-28T18:06:00;98714.53;;;14.06;63.94
60820;BME280;46641;48.904;9.126;2023-12-28T18:10:50;98720.78;;;14.05;64.10
60820;BME280;46641;48.904;9.126;2023-12-28T18:15:41;98724.22;;;14.06;64.37
60820;BME280;46641;48.904;9.126;2023-12-28T18:20:31;98724.41;;;14.04;64.12
60820;BME280;46641;48.904;9.126;2023-12-28T18:25:21;98736.91;;;14.02;64.17
60820;BME280;46641;48.904;9.126;2023-12-28T18:30:12;98735.25;;;14.01;64.16
60820;BME280;46641;48.904;9.126;2023-12-28T18:35:02;98728.50;;;13.98;64.21
60820;BME280;46641;48.904;9.126;2023-12-28T18:39:53;98743.31;;;13.99;64.20
60820;BME280;46641;48.904;9.126;2023-12-28T18:44:43;98735.75;;;13.96;64.45
60820;BME280;46641;48.904;9.126;2023-12-28T18:49:33;98733.28;;;13.95;64.17
60820;BME280;46641;48.904;9.126;2023-12-28T18:54:24;98743.81;;;13.95;64.33
60820;BME280;46641;48.904;9.126;2023-12-28T18:59:14;98750.88;;;13.94;64.43
60820;BME280;46641;48.904;9.126;2023-12-28T19:04:04;98756.97;;;13.95;64.67
60820;BME280;46641;48.904;9.126;2023-12-28T19:08:55;98746.59;;;13.93;64.51
60820;BME280;46641;48.904;9.126;2023-12-28T19:13:45;98761.56;;;13.93;64.64
60820;BME280;46641;48.904;9.126;2023-12-28T19:18:35;98766.16;;;13.91;64.63
60820;BME280;46641;48.904;9.126;2023-12-28T19:23:26;98764.69;;;13.88;64.73
60820;BME280;46641;48.904;9.126;2023-12-28T19:28:16;98763.69;;;13.89;64.79
60820;BME280;46641;48.904;9.126;2023-12-28T19:33:06;98775.03;;;13.90;64.84
60820;BME280;46641;48.904;9.126;2023-12-28T19:37:56;98770.44;;;13.92;64.71
60820;BME280;46641;48.904;9.126;2023-12-28T19:42:47;98760.25;;;13.89;64.81
60820;BME280;46641;48.904;9.126;2023-12-28T19:47:37;98755.81;;;13.89;64.62
60820;BME280;46641;48.904;9.126;2023-12-28T19:52:28;98757.63;;;13.89;64.92
60820;BME280;46641;48.904;9.126;2023-12-28T19:57:18;98753.16;;;13.89;64.96
60820;BME280;46641;48.904;9.126;2023-12-28T20:02:08;98754.16;;;13.88;64.79
60820;BME280;46641;48.904;9.126;2023-12-28T20:07:01;98744.47;;;13.89;64.74
60820;BME280;46641;48.904;9.126;2023-12-28T20:11:52;98746.28;;;13.88;64.93
60820;BME280;46641;48.904;9.126;2023-12-28T20:16:42;98745.59;;;13.86;64.68
60820;BME280;46641;48.904;9.126;2023-12-28T20:21:35;98737.88;;;13.85;64.80
60820;BME280;46641;48.904;9.126;2023-12-28T20:26:26;98728.19;;;13.85;64.94
60820;BME280;46641;48.904;9.126;2023-12-28T20:31:19;98716.84;;;13.85;64.99
60820;BME280;46641;48.904;9.126;2023-12-28T20:36:11;98715.03;;;13.85;64.54
60820;BME280;46641;48.904;9.126;2023-12-28T20:41:01;98713.22;;;13.86;64.60
60820;BME280;46641;48.904;9.126;2023-12-28T20:45:55;98718.63;;;13.84;64.71
60820;BME280;46641;48.904;9.126;2023-12-28T20:50:46;98717.66;;;13.85;64.70
60820;BME280;46641;48.904;9.126;2023-12-28T20:55:36;98714.69;;;13.80;64.88
60820;BME280;46641;48.904;9.126;2023-12-28T21:00:26;98717.31;;;13.80;65.03
60820;BME280;46641;48.904;9.126;2023-12-28T21:05:17;98719.13;;;13.79;64.70
60820;BME280;46641;48.904;9.126;2023-12-28T21:10:07;98709.75;;;13.77;64.89
60820;BME280;46641;48.904;9.126;2023-12-28T21:14:57;98709.75;;;13.77;64.87
60820;BME280;46641;48.904;9.126;2023-12-28T21:19:48;98711.56;;;13.76;64.86
60820;BME280;46641;48.904;9.126;2023-12-28T21:24:38;98704.47;;;13.77;64.83
60820;BME280;46641;48.904;9.126;2023-12-28T21:29:30;98698.72;;;13.73;64.92
60820;BME280;46641;48.904;9.126;2023-12-28T21:34:20;98689.84;;;13.74;64.81
60820;BME280;46641;48.904;9.126;2023-12-28T21:39:11;98676.84;;;13.73;65.04
60820;BME280;46641;48.904;9.126;2023-12-28T21:44:03;98688.53;;;13.70;65.19
60820;BME280;46641;48.904;9.126;2023-12-28T21:48:53;98689.34;;;13.71;65.14
60820;BME280;46641;48.904;9.126;2023-12-28T21:53:44;98686.72;;;13.71;64.99
60820;BME280;46641;48.904;9.126;2023-12-28T21:58:35;98673.88;;;13.68;64.93
60820;BME280;46641;48.904;9.126;2023-12-28T22:03:25;98675.56;;;13.69;65.03
60820;BME280;46641;48.904;9.126;2023-12-28T22:08:16;98687.03;;;13.68;65.03
60820;BME280;46641;48.904;9.126;2023-12-28T22:13:06;98678.50;;;13.66;65.10
60820;BME280;46641;48.904;9.126;2023-12-28T22:17:56;98677.69;;;13.65;65.37
60820;BME280;46641;48.904;9.126;2023-12-28T22:22:47;98674.56;;;13.62;65.13
60820;BME280;46641;48.904;9.126;2023-12-28T22:27:37;98678.00;;;13.62;65.15
60820;BME280;46641;48.904;9.126;2023-12-28T22:32:27;98676.34;;;13.61;65.18
60820;BME280;46641;48.904;9.126;2023-12-28T22:37:18;98683.28;;;13.62;64.97
60820;BME280;46641;48.904;9.126;2023-12-28T22:42:08;98683.41;;;13.61;64.81
60820;BME280;46641;48.904;9.126;2023-12-28T22:47:01;98676.66;;;13.58;65.33
60820;BME280;46641;48.904;9.126;2023-12-28T22:51:51;98671.59;;;13.56;65.14
60820;BME280;46641;48.904;9.126;2023-12-28T22:56:41;98669.94;;;13.55;64.99
60820;BME280;46641;48.904;9.126;2023-12-28T23:01:32;98671.59;;;13.56;64.94
60820;BME280;46641;48.904;9.126;2023-12-28T23:06:22;98663.03;;;13.54;65.19
60820;BME280;46641;48.904;9.126;2023-12-28T23:11:12;98658.09;;;13.51;65.25
60820;BME280;46641;48.904;9.126;2023-12-28T23:16:03;98654.50;;;13.52;65.02
60820;BME280;46641;48.904;9.126;2023-12-28T23:20:53;98657.94;;;13.53;65.40
60820;BME280;46641;48.904;9.126;2023-12-28T23:25:44;98653.69;;;13.52;65.30
60820;BME280;46641;48.904;9.126;2023-12-28T23:30:35;98658.09;;;13.51;64.95
60820;BME280;46641;48.904;9.126;2023-12-28T23:35:27;98655.97;;;13.47;64.97
60820;BME280;46641;48.904;9.126;2023-12-28T23:40:18;98656.94;;;13.46;65.18
60820;BME280;46641;48.904;9.126;2023-12-28T23:45:08;98651.38;;;13.49;64.87
60820;BME280;46641;48.904;9.126;2023-12-28T23:49:59;98643.81;;;13.46;65.03
60820;BME280;46641;48.904;9.126;2023-12-28T23:54:50;98637.88;;;13.44;65.26
60820;BME280;46641;48.904;9.126;2023-12-28T23:59:40;98629.81;;;13.45;65.05
